Details for Delta Airlines at KMSP




Go Back


Latest METAR
Local Time

KMSP 232353Z 23009KT 8SM CLR M03/M06 A3026 RMK AO2 SLP261 4/007 T10281061 10000 21028 53024

23/02/2018, 18:01:09

Description
Results
Delta Airlines Logo
Number of Pilots based at KMSP
0 Pilots Based here
Number of Delta Airlines Flights Departed from KMSP
2 Flights Departed
Number of Delta Airlines Flights Arrived at KMSP
2 Flights Arrived
Number of Delta Airlines Schedules Departing from KMSP
1217 Schedules
Number of Delta Airlines Schedules Arriving at KMSP
1248 Schedules
Number of Delta Airlines Schedules Departing from KMSP availible today
424 Schedules Today
Number of Delta Airlines Schedules Arriving at KMSP availible today
428 Schedules Today
Average Landing Rate at KMSP
-34 fpm
Delta Airlines Average Landing Rate at KMSP
-34 fpm
Total Fuel Purchased at KMSP by Delta Airlines
11,705.41 kgs / 25,805.75 lbs

Pilots Based at KMSP


Pilot ID
Pilot Name
Pilot Rank
No. of Flights
No. of Flying Hours
There are no pilots assigned to this hub!   Will you be the first?
Content